Allentown, Pennsylvania
Current Conditions -  °F | °C
As of 8:35 AM on Sunday 23 Nov 2014 (Local Time) from KXLL Reporting Station
Overcast Overcast  
Wind Chill:   Ceiling: 10000
Heat Index:   Visibility: 10mi
Dew Point: -5°   Wind: 0mph
Humidity: 49%   Direction: NA
Pressure: 30.22"   Gusts: NA
Location:  40.6°N, 75.47°W
Report Text: KXLL 231335Z AUTO 00000KT 10SM OVC100 05/M05 A3022 RMK AO2
Loading
Personal Weather Stations






























Interactive Weather Map New forecast layout! Learn more

10-Day Weather Forecast

Advertisements
Track Severe Weather on mobile